Gibbon Glade, PA (15440)

4:07 AM EST on February 14, 2016 (GMT -0500)
Donna's Weather | | Change Station
CLOSE
Current Station
Personal Weather Station
Location: Markleysburg, PA
Elevation: 2306 ft
Nearby Weather Stations
Active Advisory: Wind Chill Advisory

Elev 2306 ft 39.77 °N, 79.50 °W | Updated 12 seconds ago

Mostly Cloudy
Mostly Cloudy
1.9 °F
Feels Like 2 °F
N
0.0
Wind Variable Wind from NW
Gusts 0.0 mph

Today
High -- | Low -- °F
--% Chance of Precip.
Yesterday
High -- | Low -- °F
Precip. -- in
Pressure 30.19 in
Visibility 1.2 miles
Clouds Overcast 700 ft
Windchill 2 °F
Dew Point -5 °F
Humidity 71%
Rainfall 0.00 in
Snow Depth Not available.
7:12 AM 5:52 PM
Waxing Crescent, 39% visible
METAR K2G4 140845Z AUTO 28007KT 1 1/4SM BR OVC007 M17/M20 A3019 RMK AO1
Pressure 30.19 in
Visibility 1.2 miles
Clouds Overcast 700 ft
Windchill 2 °F
Dew Point -5 °F
Humidity 71%
Rainfall 0.00 in
Snow Depth Not available.
7:12 AM 5:52 PM
Waxing Crescent, 39% visible
METAR K2G4 140845Z AUTO 28007KT 1 1/4SM BR OVC007 M17/M20 A3019 RMK AO1

10-Day Weather Forecast

Almanac

Astronomy

Feb. 14, 2016 Rise Set
Actual Time
Civil Twilight
Nautical Twilight
Astronomical Twilight
Moon
Length of Visible Light
Length of Day
Tomorrow will be .
, % of the Moon is Illuminated

Today's Extremes

State Highs State Lows

Community

WunderPhotos

Upload Photos

1,892,763 photos uploaded!

WunderBlog® & News

Nearby

Air Quality

  Air Quality AQ Index Pollutant
Not available.

Snow Depth

Station Depth Elevation

Earthquake Activity

City Distance Mag. Time & Date
Minimum magnitude displayed is 2.5.

Coastal Water Temperatures

Place Temperature

Stations

Nearby Weather Stations

Station Location Temp. Windchill Dew Point Humidity Wind Precip. Elev Updated Type
                   

Watches & Warnings

Wind Chill Advisory
Issued: 3:27 AM EST Feb. 14, 2016 – National Weather Service

... Wind Chill Advisory remains in effect until 9 am EST this
morning...

* wind chill... 10 to 15 below this morning.

* Impact... frost bite and hypothermia are likely if precautions
are not taken.

Precautionary/preparedness actions...

A Wind Chill Advisory means that very cold air and strong wind
will combine to generate low wind chill indices. Make sure you
dress appropriately.